Fort McCoy, Wisconsin
Current Conditions -  °F | °C
As of 11:15 AM on Friday 19 Dec 2014 (Local Time) from KCMY Reporting Station
Scattered Clouds Scattered Clouds  
Wind Chill: 27°   Ceiling: Unl
Heat Index: 27°   Visibility: 10mi
Dew Point: 18°   Wind: 0mph
Humidity: 69%   Direction: NA
Pressure: 30.29"   Gusts: NA
Location:  43.9936°N, 90.8051°W
Report Text: KCMY 191715Z AUTO 00000KT 10SM SCT085 M03/M08 A3029 RMK AO2 T10291078
Loading
Personal Weather Stations






























Interactive Weather Map New forecast layout! Learn more

10-Day Weather Forecast

Advertisements
Track Severe Weather on mobile